Terminal Aerodrome Forecast
Issued by NWS

Home | Current Version | Previous Version | Text Only | Print | Product List | Glossary On
Versions: 1 2 3 4 5 6 7 8 9 10 11 12 13 14 15 16 17 18 19 20 21 22 23 24 25 26 27 28 29 30 31 32 33 34
597
FTUS41 KBGM 191135
TAFITH
TAF
KITH 191135Z 1912/2012 16010KT P6SM BKN120
     FM191400 18012G20KT P6SM OVC035
     FM192100 17010KT 6SM -SHRA BR OVC022
     FM192300 18008KT 4SM -SHRA BR OVC017
      TEMPO 2001/2005 2SM -TSRA BR OVC030CB
     FM201000 VRB03KT 3SM -SHRA BR OVC008=

USA.gov is the U.S. government's official web portal to all federal, state and local government web resources and services.